createdAt,value
2023-02-22T00:05:52.295Z,5.3
2023-02-22T00:11:52.252Z,5.2
2023-02-22T00:17:52.267Z,5
2023-02-22T00:23:52.239Z,4.8
2023-02-22T00:29:52.251Z,4.7
2023-02-22T00:35:52.262Z,4.5
2023-02-22T00:41:52.350Z,4.5
2023-02-22T00:47:52.207Z,4.4
2023-02-22T00:53:52.266Z,4.3
2023-02-22T00:59:52.229Z,4.2
2023-02-22T01:05:52.232Z,4.2
2023-02-22T01:11:52.234Z,4.3
2023-02-22T01:17:52.221Z,4.1
2023-02-22T01:23:52.224Z,4.1
2023-02-22T01:29:52.257Z,4
2023-02-22T01:35:52.233Z,3.9
2023-02-22T01:41:52.231Z,4
2023-02-22T01:47:52.250Z,4.2
2023-02-22T01:53:52.228Z,4.4
2023-02-22T01:59:52.223Z,4.6
2023-02-22T02:05:52.233Z,4.7
2023-02-22T02:12:10.725Z,4.6
2023-02-22T02:17:52.216Z,4.7
2023-02-22T02:23:52.238Z,4.7
2023-02-22T02:29:52.226Z,4.8
2023-02-22T02:35:52.217Z,4.9
2023-02-22T02:41:52.314Z,4.9
2023-02-22T02:47:52.229Z,4.9
2023-02-22T02:53:52.224Z,4.9
2023-02-22T02:59:52.248Z,4.9
2023-02-22T03:05:52.200Z,4.9
2023-02-22T03:11:52.217Z,5
2023-02-22T03:17:52.250Z,4.9
2023-02-22T03:23:52.225Z,4.9
2023-02-22T03:29:52.229Z,4.9
2023-02-22T03:35:52.254Z,4.9
2023-02-22T03:41:52.286Z,4.9
2023-02-22T03:47:52.206Z,4.9
2023-02-22T03:53:52.236Z,4.9
2023-02-22T03:59:52.225Z,4.8
2023-02-22T04:05:52.215Z,4.7
2023-02-22T04:11:52.253Z,4.7
2023-02-22T04:17:52.228Z,4.6
2023-02-22T04:23:52.215Z,4.4
2023-02-22T04:29:52.246Z,4.2
2023-02-22T04:35:52.241Z,4.3
2023-02-22T04:41:52.201Z,4.3
2023-02-22T04:47:52.231Z,4.4
2023-02-22T04:53:52.202Z,4.5
2023-02-22T04:59:52.202Z,4.5
2023-02-22T05:05:52.216Z,4.6
2023-02-22T05:11:52.193Z,4.5
2023-02-22T05:17:52.209Z,4.5
2023-02-22T05:23:52.258Z,4.4
2023-02-22T05:29:52.252Z,4.4
2023-02-22T05:35:52.193Z,4.4
2023-02-22T05:41:52.220Z,4.5
2023-02-22T05:47:52.188Z,4.5
2023-02-22T05:53:52.226Z,4.5
2023-02-22T05:59:52.229Z,4.4
2023-02-22T06:05:52.237Z,4.4
2023-02-22T06:11:54.417Z,4.5
2023-02-22T06:17:52.217Z,4.5
2023-02-22T06:23:52.219Z,4.6
2023-02-22T06:29:52.223Z,4.6
2023-02-22T06:35:52.199Z,4.7
2023-02-22T06:41:52.209Z,4.7
2023-02-22T06:47:52.191Z,4.9
2023-02-22T06:53:52.207Z,5
2023-02-22T06:59:52.205Z,5.1
2023-02-22T07:05:52.178Z,5.2
2023-02-22T07:11:52.191Z,5.4
2023-02-22T07:17:52.229Z,5.6
2023-02-22T07:23:52.216Z,5.7
2023-02-22T07:29:52.209Z,5.7
2023-02-22T07:35:52.192Z,5.8
2023-02-22T07:41:52.193Z,5.9
2023-02-22T07:47:52.205Z,6.1
2023-02-22T07:53:52.174Z,6.4
2023-02-22T07:59:52.192Z,6.6
2023-02-22T08:05:52.220Z,6.5
2023-02-22T08:11:52.182Z,6.7
2023-02-22T08:17:52.183Z,6.8
2023-02-22T08:23:52.198Z,7.2
2023-02-22T08:29:52.198Z,7.3
2023-02-22T08:35:52.189Z,7.4
2023-02-22T08:41:52.225Z,7.8
2023-02-22T08:47:52.184Z,8.2
2023-02-22T08:53:52.191Z,8.5
2023-02-22T08:59:52.189Z,8.4
2023-02-22T09:05:52.331Z,8.4
2023-02-22T09:11:53.255Z,8.8
2023-02-22T09:17:52.197Z,9.1
2023-02-22T09:23:52.182Z,9.7
2023-02-22T09:29:52.206Z,10
2023-02-22T09:35:52.222Z,10.7
2023-02-22T09:41:52.170Z,11.6
2023-02-22T09:47:52.157Z,12.1
2023-02-22T09:53:52.184Z,12.3
2023-02-22T09:59:52.167Z,11.8
2023-02-22T10:05:52.164Z,11.7
2023-02-22T10:11:52.194Z,11.4
2023-02-22T10:17:52.251Z,12
2023-02-22T10:23:52.421Z,13.4
2023-02-22T10:29:52.530Z,12.9
2023-02-22T10:35:52.247Z,13.7
2023-02-22T10:41:52.228Z,14.5
2023-02-22T10:47:52.288Z,14.3
2023-02-22T10:53:52.169Z,14.3
2023-02-22T10:59:52.164Z,13.7
2023-02-22T11:05:52.216Z,14.1
2023-02-22T11:11:52.161Z,14.2
2023-02-22T11:17:52.170Z,14.6
2023-02-22T11:23:52.239Z,14.5
2023-02-22T11:29:52.174Z,13
2023-02-22T11:35:52.187Z,12.8
2023-02-22T11:41:52.195Z,12.5
2023-02-22T11:47:52.186Z,12.8
2023-02-22T11:53:52.191Z,12.7
2023-02-22T11:59:52.199Z,12.7
2023-02-22T12:05:52.161Z,12.5
2023-02-22T12:11:52.182Z,12.2
2023-02-22T12:18:00.043Z,12.5
2023-02-22T12:23:52.213Z,12.5
2023-02-22T12:29:52.179Z,12.9
2023-02-22T12:35:52.341Z,13
2023-02-22T12:41:52.170Z,13.2
2023-02-22T12:47:52.189Z,13.2
2023-02-22T12:53:52.255Z,13.7
2023-02-22T13:00:10.822Z,13.4
2023-02-22T13:05:52.187Z,13.6
2023-02-22T13:11:52.274Z,13.6
2023-02-22T13:17:52.180Z,13.5
2023-02-22T13:23:52.222Z,13.5
2023-02-22T13:29:52.189Z,13.4
2023-02-22T13:35:52.170Z,13.7
2023-02-22T13:41:52.265Z,13.6
2023-02-22T13:47:52.264Z,13.6
2023-02-22T13:53:52.186Z,13.7
2023-02-22T13:59:52.184Z,13.9
2023-02-22T14:05:52.243Z,14
2023-02-22T14:11:52.206Z,14.3
2023-02-22T14:17:52.176Z,14.4
2023-02-22T14:23:52.218Z,14.9
2023-02-22T14:29:52.197Z,14.8
2023-02-22T14:35:52.200Z,14.8
2023-02-22T14:41:52.206Z,15
2023-02-22T14:47:52.184Z,15
2023-02-22T14:53:52.193Z,15
2023-02-22T14:59:52.194Z,14.7
2023-02-22T15:05:52.201Z,14.7
2023-02-22T15:11:52.194Z,14.4
2023-02-22T15:17:52.211Z,14.2
2023-02-22T15:23:52.237Z,14.4
2023-02-22T15:29:52.175Z,14.2
2023-02-22T15:35:52.211Z,14.3
2023-02-22T15:41:52.181Z,14.3
2023-02-22T15:47:52.200Z,14
2023-02-22T15:53:52.319Z,13.7
2023-02-22T15:59:52.185Z,13.4
2023-02-22T16:05:52.410Z,13.2
2023-02-22T16:11:52.213Z,13.1
2023-02-22T16:18:01.940Z,13.1
2023-02-22T16:23:52.197Z,13
2023-02-22T16:29:52.223Z,12.8
2023-02-22T16:35:52.539Z,12.7
2023-02-22T16:41:52.192Z,12.6
2023-02-22T16:47:52.252Z,12.7
2023-02-22T16:53:52.218Z,12.7
2023-02-22T16:59:52.199Z,12.7
2023-02-22T17:05:52.296Z,12.6
2023-02-22T17:11:52.205Z,12.5
2023-02-22T17:18:10.698Z,12.7
2023-02-22T17:23:52.211Z,12.5
2023-02-22T17:29:52.236Z,12.4
2023-02-22T17:35:52.174Z,12.3
2023-02-22T17:41:54.735Z,12.3
2023-02-22T17:47:52.192Z,12.3
2023-02-22T17:53:52.215Z,12.2
2023-02-22T17:59:52.214Z,12.2
2023-02-22T18:05:54.434Z,12.1
2023-02-22T18:11:52.206Z,12.1
2023-02-22T18:17:52.202Z,12.1
2023-02-22T18:23:52.208Z,12
2023-02-22T18:29:52.199Z,11.9
2023-02-22T18:35:52.228Z,11.9
2023-02-22T18:41:52.221Z,12
2023-02-22T18:47:52.207Z,12.1
2023-02-22T18:53:52.249Z,12.2
2023-02-22T18:59:52.201Z,11.8
2023-02-22T19:05:52.323Z,12
2023-02-22T19:11:52.233Z,11.9
2023-02-22T19:17:52.292Z,11.7
2023-02-22T19:23:52.213Z,11.5
2023-02-22T19:29:52.240Z,11.2
2023-02-22T19:35:52.216Z,11.3
2023-02-22T19:41:52.211Z,11.5
2023-02-22T19:47:52.265Z,11.5
2023-02-22T19:53:52.223Z,11.6
2023-02-22T19:59:52.193Z,11.6
2023-02-22T20:05:52.226Z,11.6
2023-02-22T20:11:52.226Z,11.7
2023-02-22T20:17:52.216Z,11.7
2023-02-22T20:23:52.224Z,11.7
2023-02-22T20:29:52.223Z,11.7
2023-02-22T20:35:52.223Z,11.6
2023-02-22T20:41:52.247Z,11.5
2023-02-22T20:47:52.211Z,11.5
2023-02-22T20:53:52.220Z,11.3
2023-02-22T20:59:52.253Z,11.4
2023-02-22T21:05:52.221Z,11.4
2023-02-22T21:11:52.203Z,11.2
2023-02-22T21:18:10.781Z,10.8
2023-02-22T21:23:52.229Z,10.9
2023-02-22T21:29:52.230Z,11
2023-02-22T21:35:52.242Z,10.8
2023-02-22T21:41:52.250Z,11
2023-02-22T21:47:52.241Z,11
2023-02-22T21:53:52.260Z,11
2023-02-22T21:59:52.268Z,11.1
2023-02-22T22:05:52.243Z,11
2023-02-22T22:11:52.226Z,11.1
2023-02-22T22:17:52.237Z,10.7
2023-02-22T22:23:52.205Z,10.3
2023-02-22T22:29:52.307Z,10.5
2023-02-22T22:35:52.224Z,10.6
2023-02-22T22:41:52.218Z,10.7
2023-02-22T22:47:52.250Z,10.7
2023-02-22T22:53:52.251Z,10.6
2023-02-22T22:59:52.229Z,10.8
2023-02-22T23:05:52.290Z,10.6
2023-02-22T23:11:52.206Z,10.5
2023-02-22T23:17:52.235Z,10.3
2023-02-22T23:23:52.249Z,9.7
2023-02-22T23:29:52.255Z,9.6
2023-02-22T23:35:52.442Z,9.9
2023-02-22T23:41:52.286Z,10.2
2023-02-22T23:47:52.216Z,10.4
2023-02-22T23:53:52.213Z,10.4
2023-02-22T23:59:52.248Z,10.4
